Time;durP1;ratioP1;P1;durP2;ratioP2;P2;SDS_P1;SDS_P2;PMS_P1;PMS_P2;Temp;Humidity;BMP_temperature;BMP_pressure;BME280_temperature;BME280_humidity;BME280_pressure;Samples;Min_cycle;Max_cycle;Signal;HPM_P1;HPM_P2
2022/08/26 00:04:10;;;;;;;37.95;9.90;;;;;;;24.02;97.92;100732.61;5155220;56;1139014;-68
2022/08/26 00:09:16;;;;;;;25.02;8.18;;;;;;;23.96;97.70;100728.87;5227688;56;1138955;-67
2022/08/26 00:14:24;;;;;;;30.97;9.75;;;;;;;23.84;98.01;100729.94;5227592;56;1138967;-67
2022/08/26 00:19:30;;;;;;;35.75;9.23;;;;;;;23.75;98.60;100721.70;5142325;56;1139026;-66
2022/08/26 00:24:36;;;;;;;27.50;10.10;;;;;;;23.69;99.36;100713.03;5141398;57;1138986;-68
2022/08/26 00:29:42;;;;;;;27.48;9.43;;;;;;;23.58;99.54;100710.90;5139266;57;1141078;-67
2022/08/26 00:34:48;;;;;;;30.43;10.23;;;;;;;23.48;99.77;100705.83;5149487;57;1138975;-68
2022/08/26 00:39:53;;;;;;;26.07;11.57;;;;;;;23.47;100.00;100706.87;5149196;57;1141100;-68
2022/08/26 00:45:00;;;;;;;35.45;13.38;;;;;;;23.47;100.00;100703.33;5081824;57;1143245;-66
2022/08/26 00:50:11;;;;;;;26.80;12.37;;;;;;;23.43;100.00;100700.19;5064532;58;1143094;-67
2022/08/26 00:55:32;;;;;;;27.67;12.75;;;;;;;23.39;100.00;100700.25;5064287;58;1143604;-68
2022/08/26 01:00:37;;;;;;;43.35;13.75;;;;;;;23.35;100.00;100707.10;5083948;58;21183;-65
2022/08/26 01:05:44;;;;;;;43.20;14.43;;;;;;;23.27;100.00;100693.75;5101664;57;1141053;-68
2022/08/26 01:10:51;;;;;;;36.47;13.30;;;;;;;23.23;100.00;100688.93;5106382;57;1145228;-66
2022/08/26 01:16:01;;;;;;;34.33;10.97;;;;;;;23.24;100.00;100686.55;5144918;57;1145232;-68
2022/08/26 01:21:20;;;;;;;41.05;11.70;;;;;;;23.23;100.00;100683.53;5045938;58;1145223;-67
2022/08/26 01:26:39;;;;;;;26.97;13.50;;;;;;;23.14;100.00;100690.95;5042424;58;1145339;-67
2022/08/26 01:31:49;;;;;;;26.55;12.13;;;;;;;23.17;100.00;100687.04;5138422;57;1145268;-65
2022/08/26 01:37:18;;;;;;;23.30;13.50;;;;;;;23.22;100.00;100688.64;5158236;57;1145261;-67
2022/08/26 01:42:26;;;;;;;25.85;14.03;;;;;;;23.15;100.00;100687.23;5156463;57;1145492;-67
2022/08/26 01:47:35;;;;;;;20.43;12.88;;;;;;;23.03;100.00;100683.41;5157649;57;1145476;-68
2022/08/26 01:52:45;;;;;;;28.85;12.28;;;;;;;23.08;100.00;100681.77;5157292;57;1145360;-65
2022/08/26 01:57:55;;;;;;;21.00;12.37;;;;;;;23.08;100.00;100679.59;5156613;57;1145293;-66
2022/08/26 02:03:17;;;;;;;23.60;12.40;;;;;;;23.09;100.00;100683.95;5120200;57;1145382;-67
2022/08/26 02:08:34;;;;;;;25.57;12.98;;;;;;;23.13;100.00;100682.55;5157486;57;1145609;-68
2022/08/26 02:13:45;;;;;;;23.77;11.97;;;;;;;23.19;100.00;100679.59;5153862;57;1145268;-68
2022/08/26 02:18:51;;;;;;;28.42;12.80;;;;;;;23.15;100.00;100672.39;5085625;57;1145289;-66
2022/08/26 02:23:57;;;;;;;15.95;12.37;;;;;;;23.01;100.00;100653.93;5073958;58;1145603;-68
2022/08/26 02:29:13;;;;;;;20.10;12.50;;;;;;;23.01;100.00;100653.93;5073890;57;1145283;-67
2022/08/26 02:34:25;;;;;;;14.43;11.60;;;;;;;23.09;100.00;100662.38;5076822;58;1143209;-65
2022/08/26 02:39:32;;;;;;;25.02;11.22;;;;;;;23.04;100.00;100662.16;5137905;57;1143310;-67
2022/08/26 02:44:39;;;;;;;28.87;12.60;;;;;;;22.96;100.00;100659.58;5159934;57;1143181;-68
2022/08/26 02:49:46;;;;;;;17.10;12.78;;;;;;;22.85;100.00;100656.92;5162074;57;1143136;-67
2022/08/26 02:54:52;;;;;;;22.62;12.25;;;;;;;22.77;100.00;100656.53;5162215;57;1143289;-66
2022/08/26 03:00:00;;;;;;;17.92;11.05;;;;;;;22.71;100.00;100655.95;5176583;56;1143352;-66
2022/08/26 03:05:06;;;;;;;18.12;12.07;;;;;;;22.69;100.00;100657.16;5227908;56;1143263;-67
2022/08/26 03:10:12;;;;;;;21.40;11.50;;;;;;;22.56;100.00;100644.92;5188167;56;1143397;-67
2022/08/26 03:15:20;;;;;;;13.20;11.75;;;;;;;22.53;100.00;100643.44;5172236;56;1143444;-65
2022/08/26 03:20:26;;;;;;;25.62;12.40;;;;;;;22.58;100.00;100643.70;5085433;57;1143268;-66
2022/08/26 03:25:32;;;;;;;20.92;11.50;;;;;;;22.53;100.00;100642.61;5073813;58;1142774;-68
2022/08/26 03:30:41;;;;;;;20.92;11.68;;;;;;;22.49;100.00;100642.16;5205763;56;1143169;-68
2022/08/26 03:35:47;;;;;;;31.02;12.30;;;;;;;22.51;100.00;100638.75;5142787;56;1143142;-66
2022/08/26 03:40:54;;;;;;;28.98;11.90;;;;;;;22.54;100.00;100632.14;5137500;57;1143185;-66
2022/08/26 03:46:08;;;;;;;22.05;12.37;;;;;;;22.56;100.00;100630.93;5157094;57;1143240;-65
2022/08/26 03:51:17;;;;;;;26.93;12.13;;;;;;;22.54;100.00;100638.38;5157556;57;1145320;-68
2022/08/26 03:56:24;;;;;;;32.47;13.67;;;;;;;22.51;100.00;100631.18;5157267;57;1145338;-65
2022/08/26 04:01:30;;;;;;;25.80;13.53;;;;;;;22.46;100.00;100633.09;5157623;57;1145313;-68
2022/08/26 04:06:43;;;;;;;17.00;11.18;;;;;;;22.41;100.00;100636.91;5163359;56;1145200;-66
2022/08/26 04:11:50;;;;;;;14.00;12.43;;;;;;;22.44;100.00;100635.18;5245017;56;1145271;-67
2022/08/26 04:16:57;;;;;;;21.65;12.05;;;;;;;22.23;100.00;100632.47;5183746;56;1145157;-66
2022/08/26 04:22:02;;;;;;;18.77;12.73;;;;;;;22.08;100.00;100632.02;5151123;57;1145215;-66
2022/08/26 04:27:09;;;;;;;17.48;13.15;;;;;;;21.98;100.00;100633.33;5144137;57;1145170;-68
2022/08/26 04:32:16;;;;;;;17.98;13.35;;;;;;;22.05;100.00;100632.39;5134876;57;1145418;-65
2022/08/26 04:37:23;;;;;;;19.62;13.22;;;;;;;22.10;100.00;100631.83;5125228;57;1145244;-67
2022/08/26 04:42:30;;;;;;;13.78;12.33;;;;;;;22.11;100.00;100626.77;5125295;57;1145445;-68
2022/08/26 04:47:36;;;;;;;19.95;13.58;;;;;;;22.11;100.00;100626.77;5125506;57;1145453;-65
2022/08/26 04:52:43;;;;;;;21.68;12.93;;;;;;;22.09;100.00;100636.38;5131629;56;1145332;-68
2022/08/26 04:57:48;;;;;;;20.88;14.38;;;;;;;22.07;100.00;100637.08;5126145;57;1145266;-66
2022/08/26 05:02:54;;;;;;;25.17;14.18;;;;;;;22.05;100.00;100636.44;5127373;57;1145384;-66
2022/08/26 05:08:00;;;;;;;19.52;12.00;;;;;;;22.00;100.00;100636.16;5125409;57;1145179;-66
2022/08/26 05:13:06;;;;;;;30.25;15.18;;;;;;;21.96;100.00;100634.86;5125022;57;1145356;-68
2022/08/26 05:18:15;;;;;;;23.92;15.05;;;;;;;21.87;100.00;100646.75;5125351;57;1145145;-67
2022/08/26 05:23:22;;;;;;;18.73;13.48;;;;;;;21.97;100.00;100645.12;5125151;57;1145457;-68
2022/08/26 05:28:30;;;;;;;19.48;14.30;;;;;;;22.05;100.00;100650.41;5080646;57;1145226;-67
2022/08/26 05:33:35;;;;;;;20.72;14.43;;;;;;;22.08;100.00;100660.81;5065969;57;1145364;-67
2022/08/26 05:38:42;;;;;;;21.37;14.23;;;;;;;22.13;100.00;100662.95;5072826;58;1145331;-67
2022/08/26 05:43:48;;;;;;;27.52;15.05;;;;;;;22.16;100.00;100664.72;5117457;57;1145274;-66
2022/08/26 05:48:55;;;;;;;21.23;14.43;;;;;;;22.12;100.00;100666.16;5177667;56;1145209;-67
2022/08/26 05:54:10;;;;;;;15.95;13.48;;;;;;;22.20;100.00;100667.36;5157515;57;1145246;-63
2022/08/26 05:59:16;;;;;;;17.00;12.70;;;;;;;22.17;100.00;100677.17;5143593;57;1145203;-65
2022/08/26 06:04:24;;;;;;;25.60;14.92;;;;;;;22.09;100.00;100660.63;5156839;57;1145197;-66
2022/08/26 06:09:29;;;;;;;25.35;14.13;;;;;;;22.10;100.00;100660.95;5145862;57;1145251;-66
2022/08/26 06:14:35;;;;;;;21.10;14.43;;;;;;;22.05;100.00;100657.14;5103787;56;1145253;-65
2022/08/26 06:19:40;;;;;;;22.73;14.33;;;;;;;22.13;100.00;100659.74;5222171;56;1145192;-67
2022/08/26 06:30:11;;;;;;;20.77;14.70;;;;;;;22.44;100.00;100660.78;5148962;56;1143184;-68
2022/08/26 06:35:18;;;;;;;26.73;15.08;;;;;;;22.51;100.00;100657.63;5109758;57;1143363;-66
2022/08/26 06:40:24;;;;;;;25.23;14.00;;;;;;;22.54;100.00;100659.11;5160618;56;1143114;-65
2022/08/26 06:45:29;;;;;;;28.47;14.33;;;;;;;22.71;100.00;100655.95;5175197;56;1143124;-66
2022/08/26 06:50:36;;;;;;;23.35;14.13;;;;;;;22.91;100.00;100649.92;5246786;56;1143147;-65
2022/08/26 06:55:44;;;;;;;17.27;13.90;;;;;;;23.10;100.00;100650.55;5247121;56;1143117;-68
2022/08/26 07:00:51;;;;;;;24.43;15.70;;;;;;;23.19;100.00;100660.18;5246915;56;1143150;-66
2022/08/26 07:06:02;;;;;;;31.00;13.72;;;;;;;23.28;100.00;100651.40;5201082;56;1143218;-66
2022/08/26 07:11:11;;;;;;;19.62;13.15;;;;;;;23.25;100.00;100645.05;5160346;57;1143088;-68
2022/08/26 07:16:18;;;;;;;19.20;13.70;;;;;;;23.49;100.00;100646.76;5190985;56;1143133;-66
2022/08/26 07:21:25;;;;;;;20.37;14.15;;;;;;;23.88;100.00;100648.50;5247261;56;1143449;-69
2022/08/26 07:26:31;;;;;;;23.65;12.73;;;;;;;24.18;100.00;100645.27;5220742;56;1143348;-68
2022/08/26 07:31:40;;;;;;;36.03;13.45;;;;;;;24.35;100.00;100646.27;5158461;57;1143210;-66
2022/08/26 07:36:45;;;;;;;21.93;11.50;;;;;;;24.59;100.00;100636.22;5153484;56;1143413;-69
2022/08/26 07:41:52;;;;;;;20.08;12.95;;;;;;;24.85;100.00;100632.14;5163729;56;1141118;-68
2022/08/26 07:46:58;;;;;;;19.32;11.85;;;;;;;25.12;100.00;100634.32;5154149;56;1141186;-69
2022/08/26 07:52:06;;;;;;;25.77;13.50;;;;;;;25.35;100.00;100638.45;5147438;56;1145183;-66
2022/08/26 07:57:12;;;;;;;22.70;12.13;;;;;;;25.66;100.00;100632.34;5083983;57;1145170;-69
2022/08/26 08:02:17;;;;;;;26.75;12.18;;;;;;;25.89;100.00;100625.85;5202101;56;1145286;-69
2022/08/26 08:07:24;;;;;;;21.23;10.93;;;;;;;26.14;100.00;100629.45;5163258;56;1145392;-65
2022/08/26 08:12:30;;;;;;;31.45;11.68;;;;;;;26.35;96.78;100626.95;5190744;56;1145255;-69
2022/08/26 08:17:36;;;;;;;11.95;8.75;;;;;;;26.44;92.25;100631.58;5199419;56;1142989;-67
2022/08/26 08:22:42;;;;;;;14.15;10.50;;;;;;;26.51;92.91;100621.52;5157282;56;1141077;-66
2022/08/26 08:27:49;;;;;;;24.18;12.30;;;;;;;26.74;93.23;100627.68;5148421;57;1143035;-67
2022/08/26 08:32:55;;;;;;;13.60;9.08;;;;;;;26.92;92.74;100635.34;5148784;57;1143376;-66
2022/08/26 08:38:02;;;;;;;20.77;10.58;;;;;;;27.15;92.26;100626.61;5162113;56;1141183;-68
2022/08/26 08:43:14;;;;;;;23.42;10.72;;;;;;;27.34;89.36;100618.47;5200816;56;1143117;-70
2022/08/26 08:48:34;;;;;;;34.48;11.88;;;;;;;27.47;90.69;100612.88;5148557;56;1143246;-66
2022/08/26 08:53:43;;;;;;;17.17;10.10;;;;;;;27.67;89.79;100614.83;5148248;56;1143130;-67
2022/08/26 08:59:16;;;;;;;15.75;10.48;;;;;;;27.80;87.83;100608.42;5148193;57;1143017;-66
2022/08/26 09:04:43;;;;;;;16.42;9.13;;;;;;;28.00;86.99;100606.23;5147519;56;1143381;-68
2022/08/26 09:10:00;;;;;;;28.62;10.45;;;;;;;28.14;86.56;100603.62;5149228;57;1141047;-65
2022/08/26 09:15:27;;;;;;;23.32;9.63;;;;;;;28.37;85.59;100597.98;5158410;56;1143056;-66
2022/08/26 09:21:02;;;;;;;31.65;9.63;;;;;;;28.61;84.03;100595.05;5187875;56;1141030;-68
2022/08/26 09:26:42;;;;;;;19.00;9.28;;;;;;;28.77;79.89;100588.61;5229611;56;1139056;-66
2022/08/26 09:31:50;;;;;;;18.40;8.23;;;;;;;28.81;75.80;100592.02;5185112;56;1139008;-71
2022/08/26 09:37:00;;;;;;;15.65;8.03;;;;;;;28.99;74.91;100588.34;5238674;56;1139215;-67
2022/08/26 09:42:24;;;;;;;20.80;8.73;;;;;;;29.14;72.13;100578.33;5217652;56;1138975;-68
2022/08/26 09:47:40;;;;;;;20.90;7.70;;;;;;;29.25;70.26;100572.84;5169904;56;1140979;-66
2022/08/26 09:52:45;;;;;;;26.35;7.53;;;;;;;29.40;71.05;100568.28;5185092;56;1141008;-66
2022/08/26 09:57:54;;;;;;;17.73;6.42;;;;;;;29.60;69.59;100561.88;5148855;57;1141073;-67
2022/08/26 10:03:07;;;;;;;26.93;6.60;;;;;;;29.82;70.43;100560.64;5148844;57;1141278;-64
2022/08/26 10:08:42;;;;;;;15.23;6.53;;;;;;;30.05;66.90;100555.11;5170946;56;1141034;-67
2022/08/26 10:13:53;;;;;;;14.33;5.45;;;;;;;30.29;67.56;100555.78;5149296;56;1141128;-66
2022/08/26 10:19:12;;;;;;;8.13;4.28;;;;;;;30.40;63.51;100545.87;5225517;56;1141038;-69
2022/08/26 10:24:31;;;;;;;14.40;4.80;;;;;;;30.54;55.77;100543.13;5233674;56;1138942;-67
2022/08/26 10:29:44;;;;;;;36.93;6.15;;;;;;;30.66;55.87;100528.83;5170281;56;1141078;-68
2022/08/26 10:34:49;;;;;;;11.45;3.55;;;;;;;30.80;54.88;100531.20;5234810;56;1141076;-68
2022/08/26 10:40:02;;;;;;;11.13;3.33;;;;;;;31.00;55.31;100536.95;5235161;56;1141135;-67
2022/08/26 10:45:24;;;;;;;29.40;3.95;;;;;;;31.17;49.72;100528.16;5165694;56;1141248;-65
2022/08/26 10:50:43;;;;;;;8.95;3.08;;;;;;;31.26;48.32;100523.92;5150330;57;1141012;-66
2022/08/26 10:56:23;;;;;;;16.02;4.15;;;;;;;31.25;46.62;100524.17;5166657;56;1139036;-69
2022/08/26 11:01:42;;;;;;;14.45;4.40;;;;;;;31.31;49.01;100514.42;5148719;56;1139045;-70
2022/08/26 11:06:48;;;;;;;15.80;4.05;;;;;;;31.47;49.74;100516.22;5209165;56;1138967;-67
2022/08/26 11:11:54;;;;;;;20.70;3.60;;;;;;;31.53;49.23;100514.91;5234804;56;1139017;-67
2022/08/26 11:17:01;;;;;;;7.22;3.30;;;;;;;31.70;47.90;100508.84;5234860;56;1139105;-66
2022/08/26 11:22:32;;;;;;;8.95;3.15;;;;;;;31.83;49.99;100496.11;5231943;56;1136945;-68
2022/08/26 11:27:43;;;;;;;12.75;3.45;;;;;;;31.96;46.35;100493.48;5233920;56;1134848;-69
2022/08/26 11:32:52;;;;;;;10.80;5.20;;;;;;;31.96;47.45;100487.47;5235384;56;1141050;-69
2022/08/26 11:38:24;;;;;;;8.77;3.57;;;;;;;32.02;46.84;100480.96;5242525;56;1141254;-67
2022/08/26 11:43:30;;;;;;;9.60;3.80;;;;;;;32.10;44.55;100473.63;5247086;56;1139076;-68
2022/08/26 11:48:40;;;;;;;12.43;3.10;;;;;;;32.16;44.33;100473.95;5210107;56;1139042;-65
2022/08/26 11:53:46;;;;;;;11.50;2.98;;;;;;;32.25;40.99;100471.58;5246399;56;1141090;-67
2022/08/26 11:58:57;;;;;;;9.48;3.15;;;;;;;32.23;40.25;100468.30;5246266;56;1141600;-67
2022/08/26 12:04:06;;;;;;;6.75;3.25;;;;;;;32.21;37.72;100462.80;5247169;56;1139015;-66
2022/08/26 12:09:30;;;;;;;20.48;4.05;;;;;;;32.27;38.73;100455.72;5247086;56;1138962;-68
2022/08/26 12:14:36;;;;;;;11.38;3.47;;;;;;;32.33;40.30;100447.83;5246854;56;1141152;-69
2022/08/26 12:19:42;;;;;;;10.53;3.42;;;;;;;32.44;39.37;100447.34;5247069;56;1141110;-67
2022/08/26 12:24:53;;;;;;;16.27;7.15;;;;;;;32.51;39.88;100436.98;5246985;56;1141062;-66
2022/08/26 12:30:15;;;;;;;19.07;3.83;;;;;;;32.58;38.68;100441.66;5246812;56;1141252;-67
2022/08/26 12:35:21;;;;;;;24.05;3.58;;;;;;;32.62;39.86;100430.47;5242031;56;1141051;-68
2022/08/26 12:40:43;;;;;;;15.80;3.42;;;;;;;32.75;40.44;100419.59;5215452;56;1141090;-69
2022/08/26 12:45:59;;;;;;;10.72;3.35;;;;;;;32.77;39.13;100419.61;5251389;56;1141193;-67
2022/08/26 12:51:08;;;;;;;16.90;3.67;;;;;;;32.70;38.58;100412.68;5249212;56;1141070;-68
2022/08/26 12:56:27;;;;;;;18.15;4.10;;;;;;;32.76;37.59;100405.63;5211053;56;1141088;-70
2022/08/26 13:01:41;;;;;;;10.85;2.80;;;;;;;32.89;38.68;100400.73;5211630;56;1139081;-70
2022/08/26 13:06:47;;;;;;;10.00;3.47;;;;;;;32.92;37.51;100398.84;5164850;56;1139062;-69
2022/08/26 13:11:56;;;;;;;17.95;4.25;;;;;;;32.85;34.81;100388.94;5165155;56;1139030;-67
2022/08/26 13:17:02;;;;;;;11.37;3.00;;;;;;;32.82;35.95;100388.67;5208508;56;1139266;-67
2022/08/26 13:22:12;;;;;;;15.08;3.58;;;;;;;32.78;33.99;100382.08;5251763;56;1138971;-68
2022/08/26 13:27:19;;;;;;;9.38;3.33;;;;;;;32.74;35.72;100376.31;5251541;56;1138976;-68
2022/08/26 13:32:25;;;;;;;9.13;2.98;;;;;;;32.83;34.89;100365.67;5251555;56;1136907;-70
2022/08/26 13:37:31;;;;;;;11.20;3.62;;;;;;;32.84;33.40;100361.84;5224504;56;1136845;-69
2022/08/26 13:42:37;;;;;;;9.08;2.92;;;;;;;32.82;33.77;100359.37;5170524;56;1138993;-69
2022/08/26 13:47:43;;;;;;;9.90;3.30;;;;;;;32.88;34.07;100355.25;5235155;56;1136896;-68
2022/08/26 13:52:49;;;;;;;18.20;3.50;;;;;;;32.96;33.38;100356.94;5235232;56;1136970;-68
2022/08/26 13:57:57;;;;;;;7.50;2.70;;;;;;;32.85;33.56;100350.59;5234463;56;1138981;-67
2022/08/26 14:03:03;;;;;;;11.97;2.85;;;;;;;32.90;32.32;100355.81;5179848;56;1136919;-66
2022/08/26 14:08:09;;;;;;;12.78;3.47;;;;;;;32.89;32.75;100339.09;5147772;57;1136956;-66
2022/08/26 14:13:17;;;;;;;7.03;2.55;;;;;;;33.00;33.99;100334.72;5148620;57;1136889;-69
2022/08/26 14:18:27;;;;;;;12.40;2.72;;;;;;;33.05;31.83;100330.63;5200430;56;1139090;-66
2022/08/26 14:23:32;;;;;;;12.30;3.37;;;;;;;33.14;32.40;100324.08;5189413;56;1141061;-69
2022/08/26 14:28:39;;;;;;;9.37;3.23;;;;;;;33.09;32.36;100322.70;5234745;56;1140921;-70
2022/08/26 14:33:45;;;;;;;9.75;3.60;;;;;;;33.10;32.64;100320.23;5191479;56;1139122;-70
2022/08/26 14:38:50;;;;;;;7.45;2.85;;;;;;;33.05;30.89;100316.93;5238408;56;1138921;-67
2022/08/26 14:44:04;;;;;;;13.85;2.80;;;;;;;32.91;31.21;100316.36;5197418;56;1139006;-70
2022/08/26 14:49:09;;;;;;;11.30;2.55;;;;;;;32.91;31.83;100324.03;5209087;56;1141009;-66
2022/08/26 14:54:17;;;;;;;13.90;3.15;;;;;;;32.86;32.30;100324.02;5186470;56;1141325;-69
2022/08/26 14:59:30;;;;;;;14.28;2.80;;;;;;;32.90;32.44;100313.34;5159867;57;1141088;-69
2022/08/26 15:04:36;;;;;;;5.25;2.62;;;;;;;32.93;31.66;100312.27;5159792;57;1141150;-68
2022/08/26 15:09:42;;;;;;;15.03;3.30;;;;;;;32.96;32.94;100307.61;5159924;57;1138943;-65
2022/08/26 15:14:48;;;;;;;15.80;3.42;;;;;;;32.89;31.75;100307.04;5205726;56;1141131;-66
2022/08/26 15:19:54;;;;;;;10.48;3.12;;;;;;;32.77;31.97;100305.10;5205997;56;1141139;-69
2022/08/26 15:25:00;;;;;;;13.13;3.65;;;;;;;32.67;32.29;100302.32;5204855;56;1141117;-75
2022/08/26 15:30:10;;;;;;;9.93;3.33;;;;;;;32.63;32.35;100297.92;5168981;56;1141123;-74
2022/08/26 15:35:15;;;;;;;11.70;3.08;;;;;;;32.54;31.66;100298.18;5159942;57;1139241;-74
2022/08/26 15:40:22;;;;;;;8.65;3.10;;;;;;;32.52;31.92;100292.69;5242116;56;1141096;-73
2022/08/26 15:45:27;;;;;;;15.53;3.37;;;;;;;32.47;33.39;100283.91;5177574;56;1139017;-74
2022/08/26 15:50:33;;;;;;;13.03;3.15;;;;;;;32.47;31.81;100292.13;5206069;56;1141312;-74
2022/08/26 15:55:39;;;;;;;8.93;3.65;;;;;;;32.35;32.74;100290.99;5221197;56;1141080;-74
2022/08/26 16:00:45;;;;;;;16.15;3.87;;;;;;;32.33;32.57;100295.91;5202921;56;1139122;-74
2022/08/26 16:05:51;;;;;;;13.75;3.62;;;;;;;32.25;32.52;100292.84;5246658;56;1141214;-74
2022/08/26 16:10:57;;;;;;;6.17;3.35;;;;;;;32.16;32.84;100291.14;5196724;56;1141127;-75
2022/08/26 16:16:03;;;;;;;15.03;4.10;;;;;;;32.14;33.17;100291.41;5191312;56;1138979;-75
2022/08/26 16:21:18;;;;;;;15.88;4.45;;;;;;;32.09;34.01;100288.64;5180794;56;1141126;-74
2022/08/26 16:26:28;;;;;;;13.75;3.58;;;;;;;32.01;34.00;100288.33;5170605;56;1141098;-74
2022/08/26 16:31:33;;;;;;;6.87;3.37;;;;;;;32.07;35.05;100288.65;5193072;56;1140426;-74
2022/08/26 16:36:40;;;;;;;13.75;3.50;;;;;;;31.97;35.99;100282.56;5177587;56;1138968;-74
2022/08/26 16:41:46;;;;;;;13.83;3.75;;;;;;;31.97;35.99;100282.56;5246197;56;1141594;-74
2022/08/26 16:46:51;;;;;;;15.83;3.70;;;;;;;31.97;35.84;100283.93;5247151;56;1141150;-73
2022/08/26 16:51:56;;;;;;;11.55;3.50;;;;;;;31.83;35.11;100278.66;5246883;56;1141086;-73
2022/08/26 16:57:03;;;;;;;16.85;3.50;;;;;;;31.74;35.80;100285.73;5219897;56;1141235;-74
2022/08/26 17:02:10;;;;;;;9.88;3.45;;;;;;;31.65;35.97;100281.28;5194234;56;1141275;-74
2022/08/26 17:07:16;;;;;;;9.60;3.33;;;;;;;31.49;35.95;100276.76;5205839;56;1136942;-74
2022/08/26 17:12:22;;;;;;;14.75;3.92;;;;;;;31.42;36.65;100284.37;5207530;56;1136876;-74
2022/08/26 17:17:27;;;;;;;19.90;4.20;;;;;;;31.39;37.90;100287.63;5204263;56;1139220;-74
2022/08/26 17:22:33;;;;;;;15.88;3.98;;;;;;;31.33;38.11;100286.75;5221607;56;1139014;-74
2022/08/26 17:27:39;;;;;;;10.15;3.42;;;;;;;31.23;38.34;100287.22;5209304;56;1138982;-74
2022/08/26 17:32:46;;;;;;;18.77;5.08;;;;;;;31.10;38.89;100283.02;5197111;56;1139040;-72
2022/08/26 17:37:54;;;;;;;24.10;6.53;;;;;;;31.03;40.35;100280.45;5206589;56;1139001;-70
2022/08/26 17:43:00;;;;;;;13.48;4.78;;;;;;;30.96;41.04;100289.95;5147641;56;1139025;-70
2022/08/26 17:48:09;;;;;;;22.82;4.78;;;;;;;30.84;41.23;100281.11;5124406;57;1139148;-72
2022/08/26 17:53:14;;;;;;;18.07;6.53;;;;;;;30.72;41.58;100287.52;5103024;57;1138430;-72
2022/08/26 17:58:21;;;;;;;15.40;6.08;;;;;;;30.66;42.08;100289.94;5128315;57;1139032;-72
2022/08/26 18:03:28;;;;;;;16.12;6.33;;;;;;;30.51;42.07;100293.83;5102906;57;1138994;-70
2022/08/26 18:08:33;;;;;;;14.58;6.37;;;;;;;30.36;42.68;100301.83;5121956;57;1138951;-72
2022/08/26 18:13:40;;;;;;;25.97;6.03;;;;;;;30.27;43.10;100301.44;5083610;57;1139014;-72
2022/08/26 18:18:51;;;;;;;22.95;6.58;;;;;;;30.20;43.71;100305.45;5148772;57;1138265;-72
2022/08/26 18:23:56;;;;;;;33.58;6.70;;;;;;;30.10;43.96;100302.02;5106917;57;1139045;-72
2022/08/26 18:29:02;;;;;;;43.52;8.43;;;;;;;29.95;43.78;100306.70;5077318;57;1136919;-69
2022/08/26 18:34:15;;;;;;;27.45;5.47;;;;;;;29.76;44.30;100303.17;5122039;57;1137190;-73
2022/08/26 18:39:18;;;;;;;15.45;4.83;;;;;;;29.57;44.96;100305.33;5122293;57;1141224;-74
2022/08/26 18:44:25;;;;;;;17.07;5.10;;;;;;;29.37;45.03;100305.78;5127623;57;1140985;-75
2022/08/26 18:49:31;;;;;;;19.65;4.70;;;;;;;29.20;45.30;100303.05;5150784;56;1140957;-73
2022/08/26 18:54:39;;;;;;;12.18;5.65;;;;;;;29.08;45.76;100307.75;5189932;56;1140899;-74
2022/08/26 18:59:44;;;;;;;18.35;4.72;;;;;;;28.97;46.28;100310.83;5190668;56;1141032;-73
2022/08/26 19:04:50;;;;;;;18.82;5.22;;;;;;;28.84;46.31;100315.22;5178462;56;1141303;-73
2022/08/26 19:09:56;;;;;;;11.45;5.03;;;;;;;28.72;46.76;100314.42;5172656;56;1141003;-74
2022/08/26 19:15:04;;;;;;;9.20;4.47;;;;;;;28.61;47.19;100313.38;5205560;56;1140986;-74
2022/08/26 19:20:11;;;;;;;7.65;3.55;;;;;;;28.52;47.97;100314.02;5156812;56;1138916;-76
2022/08/26 19:25:17;;;;;;;12.60;4.37;;;;;;;28.38;48.79;100306.66;5183861;56;1139026;-73
2022/08/26 19:30:24;;;;;;;15.65;4.35;;;;;;;28.30;49.32;100310.57;5181312;56;1141168;-73
2022/08/26 19:35:29;;;;;;;9.15;4.12;;;;;;;28.19;49.68;100314.68;5186752;56;1140949;-75
2022/08/26 19:40:37;;;;;;;18.05;5.15;;;;;;;28.08;50.23;100316.33;5200740;56;1138942;-76
2022/08/26 19:45:43;;;;;;;17.55;5.85;;;;;;;28.01;50.75;100312.36;5186278;56;1141146;-76
2022/08/26 19:50:48;;;;;;;14.13;5.08;;;;;;;27.95;51.24;100316.59;5190028;56;1141029;-75
2022/08/26 19:55:54;;;;;;;10.08;4.15;;;;;;;27.91;51.85;100318.11;5190838;56;1140500;-76
2022/08/26 20:01:00;;;;;;;16.77;5.15;;;;;;;27.82;52.08;100316.80;5177277;56;1141310;-75
2022/08/26 20:06:08;;;;;;;24.80;5.00;;;;;;;27.74;52.57;100326.16;5183559;56;1141129;-73
2022/08/26 20:11:17;;;;;;;24.25;5.87;;;;;;;27.70;52.75;100329.03;5192978;56;1141077;-75
2022/08/26 20:16:24;;;;;;;18.02;4.62;;;;;;;27.66;52.93;100331.39;5213912;56;1141095;-76
2022/08/26 20:21:38;;;;;;;13.85;5.20;;;;;;;27.65;53.05;100333.81;5192684;56;1141296;-73
2022/08/26 20:26:45;;;;;;;16.67;4.87;;;;;;;27.56;52.99;100333.02;5160763;56;1141328;-71
2022/08/26 20:31:53;;;;;;;13.95;4.12;;;;;;;27.41;53.35;100328.03;5160603;56;1140986;-73
2022/08/26 20:36:59;;;;;;;9.60;4.78;;;;;;;27.25;53.76;100324.10;5160504;56;1141177;-72
2022/08/26 20:42:05;;;;;;;14.45;4.30;;;;;;;27.11;54.19;100325.90;5168228;56;1138971;-75
2022/08/26 20:47:11;;;;;;;14.10;4.17;;;;;;;27.04;54.80;100334.12;5189515;56;1141092;-72
2022/08/26 20:52:17;;;;;;;15.43;4.90;;;;;;;27.01;54.80;100338.69;5162569;57;1141293;-74
2022/08/26 20:57:23;;;;;;;21.42;5.83;;;;;;;27.01;54.28;100346.83;5210272;56;1141037;-73
2022/08/26 21:02:29;;;;;;;15.50;5.78;;;;;;;26.98;54.43;100345.92;5190106;56;1141372;-71
2022/08/26 21:07:35;;;;;;;13.62;5.67;;;;;;;27.00;54.44;100345.70;5162827;57;1141616;-75
2022/08/26 21:12:41;;;;;;;20.08;5.25;;;;;;;26.98;54.43;100345.09;5162658;57;1140955;-73
2022/08/26 21:17:46;;;;;;;20.77;5.25;;;;;;;26.96;54.53;100342.61;5162487;57;1141164;-74
2022/08/26 21:22:52;;;;;;;30.48;6.40;;;;;;;26.89;54.59;100337.75;5144438;57;1141106;-73
2022/08/26 21:27:58;;;;;;;17.35;5.35;;;;;;;26.83;54.77;100340.88;5142299;57;1141108;-74
2022/08/26 21:33:04;;;;;;;18.37;6.17;;;;;;;26.78;55.03;100333.12;5142353;57;1141238;-75
2022/08/26 21:38:10;;;;;;;15.70;5.30;;;;;;;26.67;55.11;100321.16;5142435;57;1139074;-74
2022/08/26 21:43:16;;;;;;;14.07;5.15;;;;;;;26.55;55.15;100314.86;5151016;57;1139300;-74
2022/08/26 21:48:23;;;;;;;14.95;5.30;;;;;;;26.46;55.29;100319.75;5206330;56;1139003;-72
2022/08/26 21:53:29;;;;;;;8.23;4.95;;;;;;;26.36;55.52;100314.57;5190894;56;1138815;-72
2022/08/26 21:58:36;;;;;;;24.37;6.42;;;;;;;26.25;55.83;100304.77;5191194;56;1136976;-73
2022/08/26 22:03:43;;;;;;;20.40;5.83;;;;;;;26.14;56.09;100292.47;5164082;56;1139022;-75
2022/08/26 22:08:50;;;;;;;12.23;5.45;;;;;;;26.04;56.60;100288.94;5148664;57;1138976;-73
2022/08/26 22:13:56;;;;;;;8.73;5.30;;;;;;;25.97;56.88;100293.63;5147424;57;1138958;-74
2022/08/26 22:19:02;;;;;;;14.15;5.42;;;;;;;25.91;57.40;100291.27;5226129;56;1136899;-73
2022/08/26 22:24:10;;;;;;;11.95;5.75;;;;;;;25.84;57.60;100295.09;5234932;56;1138944;-74
2022/08/26 22:29:17;;;;;;;17.05;5.78;;;;;;;25.83;57.76;100294.78;5234918;56;1138949;-73
2022/08/26 22:34:23;;;;;;;12.05;6.28;;;;;;;25.82;57.97;100298.02;5234719;56;1138874;-72
2022/08/26 22:39:28;;;;;;;18.00;6.58;;;;;;;25.80;57.92;100300.15;5235045;56;1139014;-74
2022/08/26 22:44:36;;;;;;;16.82;5.53;;;;;;;25.80;58.02;100299.31;5234938;56;1138960;-74
2022/08/26 22:49:42;;;;;;;22.05;6.15;;;;;;;25.74;58.01;100294.25;5246465;56;1139018;-72
2022/08/26 22:54:48;;;;;;;12.80;6.55;;;;;;;25.71;58.23;100293.34;5246273;56;1138984;-74
2022/08/26 22:59:53;;;;;;;10.15;5.42;;;;;;;25.68;58.32;100286.18;5240960;56;1138942;-72
2022/08/26 23:04:59;;;;;;;12.85;6.33;;;;;;;25.59;58.44;100274.78;5160085;57;1137012;-74